sensor_id;sensor_type;location;lat;lon;timestamp;P1;durP1;ratioP1;P2;durP2;ratioP2
28934;SDS011;16044;52.726;-2.108;2023-10-08T00:01:51;19.90;;;9.48;;
28934;SDS011;16044;52.726;-2.108;2023-10-08T00:04:22;22.05;;;10.00;;
28934;SDS011;16044;52.726;-2.108;2023-10-08T00:06:53;20.05;;;9.48;;
28934;SDS011;16044;52.726;-2.108;2023-10-08T00:09:23;19.92;;;9.27;;
28934;SDS011;16044;52.726;-2.108;2023-10-08T00:11:53;19.77;;;9.63;;
28934;SDS011;16044;52.726;-2.108;2023-10-08T00:14:27;20.45;;;9.48;;
28934;SDS011;16044;52.726;-2.108;2023-10-08T00:16:58;19.38;;;9.45;;
28934;SDS011;16044;52.726;-2.108;2023-10-08T00:19:29;17.20;;;8.88;;
28934;SDS011;16044;52.726;-2.108;2023-10-08T00:22:03;17.97;;;9.40;;
28934;SDS011;16044;52.726;-2.108;2023-10-08T00:24:34;20.02;;;9.68;;
28934;SDS011;16044;52.726;-2.108;2023-10-08T00:27:08;16.77;;;8.40;;
28934;SDS011;16044;52.726;-2.108;2023-10-08T00:29:44;15.32;;;8.63;;
28934;SDS011;16044;52.726;-2.108;2023-10-08T00:32:14;21.75;;;8.77;;
28934;SDS011;16044;52.726;-2.108;2023-10-08T00:34:45;19.77;;;9.50;;
28934;SDS011;16044;52.726;-2.108;2023-10-08T00:37:15;17.55;;;9.40;;
28934;SDS011;16044;52.726;-2.108;2023-10-08T00:39:50;17.63;;;8.98;;
28934;SDS011;16044;52.726;-2.108;2023-10-08T00:42:23;18.08;;;8.70;;
28934;SDS011;16044;52.726;-2.108;2023-10-08T00:44:58;19.33;;;9.18;;
28934;SDS011;16044;52.726;-2.108;2023-10-08T00:47:31;18.58;;;8.95;;
28934;SDS011;16044;52.726;-2.108;2023-10-08T00:50:10;20.67;;;8.40;;
28934;SDS011;16044;52.726;-2.108;2023-10-08T00:52:47;19.25;;;8.75;;
28934;SDS011;16044;52.726;-2.108;2023-10-08T00:55:26;18.88;;;8.73;;
28934;SDS011;16044;52.726;-2.108;2023-10-08T00:58:00;17.27;;;8.02;;
28934;SDS011;16044;52.726;-2.108;2023-10-08T01:00:38;18.55;;;9.10;;
28934;SDS011;16044;52.726;-2.108;2023-10-08T01:03:10;16.23;;;8.53;;
28934;SDS011;16044;52.726;-2.108;2023-10-08T01:05:46;18.02;;;8.40;;
28934;SDS011;16044;52.726;-2.108;2023-10-08T01:08:17;16.20;;;8.20;;
28934;SDS011;16044;52.726;-2.108;2023-10-08T01:10:50;16.33;;;7.95;;
28934;SDS011;16044;52.726;-2.108;2023-10-08T01:13:30;19.15;;;8.57;;
28934;SDS011;16044;52.726;-2.108;2023-10-08T01:16:13;18.85;;;8.27;;
28934;SDS011;16044;52.726;-2.108;2023-10-08T01:18:45;21.33;;;8.52;;
28934;SDS011;16044;52.726;-2.108;2023-10-08T01:21:17;16.70;;;8.13;;
28934;SDS011;16044;52.726;-2.108;2023-10-08T01:24:04;13.43;;;7.40;;
28934;SDS011;16044;52.726;-2.108;2023-10-08T01:26:35;15.43;;;7.80;;
28934;SDS011;16044;52.726;-2.108;2023-10-08T01:29:08;17.48;;;8.25;;
28934;SDS011;16044;52.726;-2.108;2023-10-08T01:31:46;17.38;;;8.13;;
28934;SDS011;16044;52.726;-2.108;2023-10-08T01:34:20;15.80;;;7.75;;
28934;SDS011;16044;52.726;-2.108;2023-10-08T01:36:55;17.27;;;8.35;;
28934;SDS011;16044;52.726;-2.108;2023-10-08T01:39:31;19.15;;;7.78;;
28934;SDS011;16044;52.726;-2.108;2023-10-08T01:42:01;17.58;;;7.65;;
28934;SDS011;16044;52.726;-2.108;2023-10-08T01:44:32;17.33;;;7.78;;
28934;SDS011;16044;52.726;-2.108;2023-10-08T01:47:03;19.00;;;8.07;;
28934;SDS011;16044;52.726;-2.108;2023-10-08T01:49:33;16.63;;;8.38;;
28934;SDS011;16044;52.726;-2.108;2023-10-08T01:52:06;24.08;;;7.90;;
28934;SDS011;16044;52.726;-2.108;2023-10-08T01:54:43;17.25;;;8.40;;
28934;SDS011;16044;52.726;-2.108;2023-10-08T01:57:14;15.10;;;7.47;;
28934;SDS011;16044;52.726;-2.108;2023-10-08T01:59:45;18.95;;;7.82;;
28934;SDS011;16044;52.726;-2.108;2023-10-08T02:02:15;16.83;;;8.25;;
28934;SDS011;16044;52.726;-2.108;2023-10-08T02:04:46;17.63;;;8.25;;
28934;SDS011;16044;52.726;-2.108;2023-10-08T02:07:17;17.33;;;7.93;;
28934;SDS011;16044;52.726;-2.108;2023-10-08T02:09:50;15.30;;;7.55;;
28934;SDS011;16044;52.726;-2.108;2023-10-08T02:12:20;17.17;;;7.65;;
28934;SDS011;16044;52.726;-2.108;2023-10-08T02:14:52;16.10;;;7.60;;
28934;SDS011;16044;52.726;-2.108;2023-10-08T02:17:23;16.73;;;7.40;;
28934;SDS011;16044;52.726;-2.108;2023-10-08T02:19:55;16.45;;;7.88;;
28934;SDS011;16044;52.726;-2.108;2023-10-08T02:22:25;17.77;;;8.15;;
28934;SDS011;16044;52.726;-2.108;2023-10-08T02:24:58;13.90;;;7.45;;
28934;SDS011;16044;52.726;-2.108;2023-10-08T02:27:30;12.83;;;6.13;;
28934;SDS011;16044;52.726;-2.108;2023-10-08T02:30:00;13.57;;;6.85;;
28934;SDS011;16044;52.726;-2.108;2023-10-08T02:32:32;15.80;;;6.82;;
28934;SDS011;16044;52.726;-2.108;2023-10-08T02:35:04;15.95;;;7.50;;
28934;SDS011;16044;52.726;-2.108;2023-10-08T02:37:36;14.13;;;7.40;;
28934;SDS011;16044;52.726;-2.108;2023-10-08T02:40:09;18.95;;;7.10;;
28934;SDS011;16044;52.726;-2.108;2023-10-08T02:42:47;16.63;;;8.23;;
28934;SDS011;16044;52.726;-2.108;2023-10-08T02:45:18;19.55;;;7.50;;
28934;SDS011;16044;52.726;-2.108;2023-10-08T02:47:48;13.90;;;7.05;;
28934;SDS011;16044;52.726;-2.108;2023-10-08T02:50:19;13.30;;;7.40;;
28934;SDS011;16044;52.726;-2.108;2023-10-08T02:52:50;15.10;;;7.10;;
28934;SDS011;16044;52.726;-2.108;2023-10-08T02:55:23;14.23;;;7.05;;
28934;SDS011;16044;52.726;-2.108;2023-10-08T02:58:01;13.82;;;7.00;;
28934;SDS011;16044;52.726;-2.108;2023-10-08T03:00:32;12.10;;;6.05;;
28934;SDS011;16044;52.726;-2.108;2023-10-08T03:03:03;11.00;;;6.22;;
28934;SDS011;16044;52.726;-2.108;2023-10-08T03:05:44;11.98;;;6.53;;
28934;SDS011;16044;52.726;-2.108;2023-10-08T03:08:16;15.63;;;6.57;;
28934;SDS011;16044;52.726;-2.108;2023-10-08T03:10:52;14.55;;;6.30;;
28934;SDS011;16044;52.726;-2.108;2023-10-08T03:13:29;11.43;;;6.22;;
28934;SDS011;16044;52.726;-2.108;2023-10-08T03:16:04;12.30;;;6.18;;
28934;SDS011;16044;52.726;-2.108;2023-10-08T03:18:40;12.48;;;6.25;;
28934;SDS011;16044;52.726;-2.108;2023-10-08T03:21:12;14.93;;;6.38;;
28934;SDS011;16044;52.726;-2.108;2023-10-08T03:24:10;11.32;;;5.82;;
28934;SDS011;16044;52.726;-2.108;2023-10-08T03:26:59;11.50;;;6.15;;
28934;SDS011;16044;52.726;-2.108;2023-10-08T03:29:39;13.55;;;6.72;;
28934;SDS011;16044;52.726;-2.108;2023-10-08T03:32:10;13.13;;;6.35;;
28934;SDS011;16044;52.726;-2.108;2023-10-08T03:34:46;23.45;;;6.45;;
28934;SDS011;16044;52.726;-2.108;2023-10-08T03:37:22;15.43;;;6.13;;
28934;SDS011;16044;52.726;-2.108;2023-10-08T03:40:08;11.40;;;5.97;;
28934;SDS011;16044;52.726;-2.108;2023-10-08T03:42:55;12.85;;;6.50;;
28934;SDS011;16044;52.726;-2.108;2023-10-08T03:45:25;12.07;;;6.72;;
28934;SDS011;16044;52.726;-2.108;2023-10-08T03:48:08;15.55;;;6.75;;
28934;SDS011;16044;52.726;-2.108;2023-10-08T03:50:42;13.95;;;6.30;;
28934;SDS011;16044;52.726;-2.108;2023-10-08T03:53:19;13.38;;;6.57;;
28934;SDS011;16044;52.726;-2.108;2023-10-08T03:55:49;12.50;;;6.72;;
28934;SDS011;16044;52.726;-2.108;2023-10-08T03:58:24;15.15;;;6.90;;
28934;SDS011;16044;52.726;-2.108;2023-10-08T04:00:59;16.60;;;7.13;;
28934;SDS011;16044;52.726;-2.108;2023-10-08T04:03:35;12.35;;;6.70;;
28934;SDS011;16044;52.726;-2.108;2023-10-08T04:06:27;12.80;;;6.57;;
28934;SDS011;16044;52.726;-2.108;2023-10-08T04:09:05;11.48;;;6.22;;
28934;SDS011;16044;52.726;-2.108;2023-10-08T04:11:43;11.57;;;6.25;;
28934;SDS011;16044;52.726;-2.108;2023-10-08T04:14:28;11.63;;;6.72;;
28934;SDS011;16044;52.726;-2.108;2023-10-08T04:17:01;14.48;;;6.75;;
28934;SDS011;16044;52.726;-2.108;2023-10-08T04:19:31;11.25;;;5.85;;
28934;SDS011;16044;52.726;-2.108;2023-10-08T04:22:02;13.10;;;6.68;;
28934;SDS011;16044;52.726;-2.108;2023-10-08T04:24:41;16.42;;;6.32;;
28934;SDS011;16044;52.726;-2.108;2023-10-08T04:27:12;13.43;;;6.63;;
28934;SDS011;16044;52.726;-2.108;2023-10-08T04:29:47;13.23;;;6.13;;
28934;SDS011;16044;52.726;-2.108;2023-10-08T04:32:18;11.70;;;6.20;;
28934;SDS011;16044;52.726;-2.108;2023-10-08T04:34:55;15.85;;;6.60;;
28934;SDS011;16044;52.726;-2.108;2023-10-08T04:37:27;12.38;;;6.72;;
28934;SDS011;16044;52.726;-2.108;2023-10-08T04:40:00;12.40;;;6.35;;
28934;SDS011;16044;52.726;-2.108;2023-10-08T04:42:42;15.80;;;7.00;;
28934;SDS011;16044;52.726;-2.108;2023-10-08T04:45:17;15.93;;;6.82;;
28934;SDS011;16044;52.726;-2.108;2023-10-08T04:47:53;12.43;;;6.88;;
28934;SDS011;16044;52.726;-2.108;2023-10-08T04:50:25;11.95;;;6.47;;
28934;SDS011;16044;52.726;-2.108;2023-10-08T04:52:57;14.38;;;7.00;;
28934;SDS011;16044;52.726;-2.108;2023-10-08T04:55:34;13.38;;;6.43;;
28934;SDS011;16044;52.726;-2.108;2023-10-08T04:58:15;12.70;;;6.35;;
28934;SDS011;16044;52.726;-2.108;2023-10-08T05:01:02;12.38;;;6.63;;
28934;SDS011;16044;52.726;-2.108;2023-10-08T05:03:46;12.52;;;6.50;;
28934;SDS011;16044;52.726;-2.108;2023-10-08T05:06:34;15.13;;;6.10;;
28934;SDS011;16044;52.726;-2.108;2023-10-08T05:09:17;15.00;;;6.95;;
28934;SDS011;16044;52.726;-2.108;2023-10-08T05:12:05;12.93;;;6.78;;
28934;SDS011;16044;52.726;-2.108;2023-10-08T05:14:57;15.00;;;6.82;;
28934;SDS011;16044;52.726;-2.108;2023-10-08T05:17:51;10.68;;;6.40;;
28934;SDS011;16044;52.726;-2.108;2023-10-08T05:20:35;12.35;;;6.65;;
28934;SDS011;16044;52.726;-2.108;2023-10-08T05:23:28;14.55;;;6.95;;
28934;SDS011;16044;52.726;-2.108;2023-10-08T05:26:11;15.70;;;7.45;;
28934;SDS011;16044;52.726;-2.108;2023-10-08T05:28:47;13.90;;;6.82;;
28934;SDS011;16044;52.726;-2.108;2023-10-08T05:31:28;13.60;;;7.18;;
28934;SDS011;16044;52.726;-2.108;2023-10-08T05:34:16;12.00;;;6.63;;
28934;SDS011;16044;52.726;-2.108;2023-10-08T05:36:51;14.32;;;6.57;;
28934;SDS011;16044;52.726;-2.108;2023-10-08T05:39:33;12.57;;;6.55;;
28934;SDS011;16044;52.726;-2.108;2023-10-08T05:42:13;13.73;;;7.25;;
28934;SDS011;16044;52.726;-2.108;2023-10-08T05:44:43;19.00;;;7.82;;
28934;SDS011;16044;52.726;-2.108;2023-10-08T05:47:35;18.73;;;7.30;;
28934;SDS011;16044;52.726;-2.108;2023-10-08T05:50:11;13.50;;;6.93;;
28934;SDS011;16044;52.726;-2.108;2023-10-08T05:52:53;13.10;;;6.75;;
28934;SDS011;16044;52.726;-2.108;2023-10-08T05:55:42;11.65;;;6.85;;
28934;SDS011;16044;52.726;-2.108;2023-10-08T05:58:14;14.68;;;7.40;;
28934;SDS011;16044;52.726;-2.108;2023-10-08T06:00:51;12.90;;;6.95;;
28934;SDS011;16044;52.726;-2.108;2023-10-08T06:03:34;11.13;;;6.55;;
28934;SDS011;16044;52.726;-2.108;2023-10-08T06:06:30;12.88;;;7.40;;
28934;SDS011;16044;52.726;-2.108;2023-10-08T06:09:04;15.00;;;6.90;;
28934;SDS011;16044;52.726;-2.108;2023-10-08T06:11:48;11.98;;;6.40;;
28934;SDS011;16044;52.726;-2.108;2023-10-08T06:14:34;15.35;;;7.53;;
28934;SDS011;16044;52.726;-2.108;2023-10-08T06:17:16;14.63;;;7.03;;
28934;SDS011;16044;52.726;-2.108;2023-10-08T06:20:01;13.98;;;6.65;;
28934;SDS011;16044;52.726;-2.108;2023-10-08T06:25:09;13.93;;;6.88;;
28934;SDS011;16044;52.726;-2.108;2023-10-08T06:27:50;14.80;;;6.85;;
28934;SDS011;16044;52.726;-2.108;2023-10-08T06:30:24;15.93;;;5.97;;
28934;SDS011;16044;52.726;-2.108;2023-10-08T06:33:02;14.75;;;6.72;;
28934;SDS011;16044;52.726;-2.108;2023-10-08T06:35:33;16.27;;;7.22;;
28934;SDS011;16044;52.726;-2.108;2023-10-08T06:38:06;15.98;;;6.82;;
28934;SDS011;16044;52.726;-2.108;2023-10-08T06:40:37;15.63;;;6.90;;
28934;SDS011;16044;52.726;-2.108;2023-10-08T06:43:07;14.07;;;6.85;;
28934;SDS011;16044;52.726;-2.108;2023-10-08T06:45:44;11.25;;;6.47;;
28934;SDS011;16044;52.726;-2.108;2023-10-08T06:48:19;15.95;;;6.68;;
28934;SDS011;16044;52.726;-2.108;2023-10-08T06:50:51;17.35;;;7.15;;
28934;SDS011;16044;52.726;-2.108;2023-10-08T06:53:27;17.67;;;7.15;;
28934;SDS011;16044;52.726;-2.108;2023-10-08T06:55:59;16.10;;;7.20;;
28934;SDS011;16044;52.726;-2.108;2023-10-08T06:58:31;11.52;;;6.47;;
28934;SDS011;16044;52.726;-2.108;2023-10-08T07:01:01;15.60;;;7.13;;
28934;SDS011;16044;52.726;-2.108;2023-10-08T07:03:35;15.80;;;6.78;;
28934;SDS011;16044;52.726;-2.108;2023-10-08T07:06:07;15.60;;;6.93;;
28934;SDS011;16044;52.726;-2.108;2023-10-08T07:08:55;13.30;;;7.43;;
28934;SDS011;16044;52.726;-2.108;2023-10-08T07:11:26;13.65;;;7.32;;
28934;SDS011;16044;52.726;-2.108;2023-10-08T07:14:01;15.52;;;7.82;;
28934;SDS011;16044;52.726;-2.108;2023-10-08T07:16:32;13.40;;;7.35;;
28934;SDS011;16044;52.726;-2.108;2023-10-08T07:19:02;18.75;;;7.85;;
28934;SDS011;16044;52.726;-2.108;2023-10-08T07:21:42;15.38;;;7.60;;
28934;SDS011;16044;52.726;-2.108;2023-10-08T07:24:16;13.60;;;6.85;;
28934;SDS011;16044;52.726;-2.108;2023-10-08T07:26:48;15.85;;;7.70;;
28934;SDS011;16044;52.726;-2.108;2023-10-08T07:29:22;16.02;;;7.63;;
28934;SDS011;16044;52.726;-2.108;2023-10-08T07:31:53;16.75;;;8.15;;
28934;SDS011;16044;52.726;-2.108;2023-10-08T07:34:23;14.77;;;7.43;;
28934;SDS011;16044;52.726;-2.108;2023-10-08T07:36:58;16.23;;;7.47;;
28934;SDS011;16044;52.726;-2.108;2023-10-08T07:39:31;17.05;;;7.90;;
28934;SDS011;16044;52.726;-2.108;2023-10-08T07:42:13;13.93;;;7.00;;
28934;SDS011;16044;52.726;-2.108;2023-10-08T07:44:44;14.07;;;7.95;;
28934;SDS011;16044;52.726;-2.108;2023-10-08T07:47:17;15.88;;;7.75;;
28934;SDS011;16044;52.726;-2.108;2023-10-08T07:49:48;19.15;;;7.82;;
28934;SDS011;16044;52.726;-2.108;2023-10-08T07:52:18;21.10;;;8.30;;
28934;SDS011;16044;52.726;-2.108;2023-10-08T07:54:52;16.67;;;8.18;;
28934;SDS011;16044;52.726;-2.108;2023-10-08T07:57:22;17.17;;;7.80;;
28934;SDS011;16044;52.726;-2.108;2023-10-08T07:59:55;16.23;;;7.32;;
28934;SDS011;16044;52.726;-2.108;2023-10-08T08:02:44;15.57;;;7.93;;
28934;SDS011;16044;52.726;-2.108;2023-10-08T08:05:16;16.63;;;8.38;;
28934;SDS011;16044;52.726;-2.108;2023-10-08T08:07:47;16.38;;;8.20;;
28934;SDS011;16044;52.726;-2.108;2023-10-08T08:10:21;16.73;;;7.60;;
28934;SDS011;16044;52.726;-2.108;2023-10-08T08:12:52;13.27;;;7.88;;
28934;SDS011;16044;52.726;-2.108;2023-10-08T08:15:23;16.60;;;7.65;;
28934;SDS011;16044;52.726;-2.108;2023-10-08T08:17:56;13.90;;;7.82;;
28934;SDS011;16044;52.726;-2.108;2023-10-08T08:20:27;16.05;;;8.43;;
28934;SDS011;16044;52.726;-2.108;2023-10-08T08:23:05;18.10;;;8.80;;
28934;SDS011;16044;52.726;-2.108;2023-10-08T08:25:39;19.67;;;7.78;;
28934;SDS011;16044;52.726;-2.108;2023-10-08T08:28:33;18.63;;;8.98;;
28934;SDS011;16044;52.726;-2.108;2023-10-08T08:31:04;20.83;;;9.18;;
28934;SDS011;16044;52.726;-2.108;2023-10-08T08:33:40;19.80;;;8.98;;
28934;SDS011;16044;52.726;-2.108;2023-10-08T08:36:23;15.75;;;8.40;;
28934;SDS011;16044;52.726;-2.108;2023-10-08T08:38:54;19.63;;;8.15;;
28934;SDS011;16044;52.726;-2.108;2023-10-08T08:41:28;19.42;;;8.38;;
28934;SDS011;16044;52.726;-2.108;2023-10-08T08:44:00;18.10;;;7.93;;
28934;SDS011;16044;52.726;-2.108;2023-10-08T08:46:33;19.08;;;8.60;;
28934;SDS011;16044;52.726;-2.108;2023-10-08T08:49:07;22.88;;;9.70;;
28934;SDS011;16044;52.726;-2.108;2023-10-08T08:51:39;17.42;;;8.93;;
28934;SDS011;16044;52.726;-2.108;2023-10-08T08:56:47;16.88;;;8.13;;
28934;SDS011;16044;52.726;-2.108;2023-10-08T08:59:19;18.42;;;8.40;;
28934;SDS011;16044;52.726;-2.108;2023-10-08T09:01:49;15.20;;;7.63;;
28934;SDS011;16044;52.726;-2.108;2023-10-08T09:04:27;15.40;;;7.60;;
28934;SDS011;16044;52.726;-2.108;2023-10-08T09:06:59;19.35;;;8.45;;
28934;SDS011;16044;52.726;-2.108;2023-10-08T09:09:31;16.45;;;7.88;;
28934;SDS011;16044;52.726;-2.108;2023-10-08T09:12:07;15.63;;;8.05;;
28934;SDS011;16044;52.726;-2.108;2023-10-08T09:14:38;17.52;;;8.13;;
28934;SDS011;16044;52.726;-2.108;2023-10-08T09:17:12;15.85;;;7.88;;
28934;SDS011;16044;52.726;-2.108;2023-10-08T09:19:43;14.23;;;7.32;;
28934;SDS011;16044;52.726;-2.108;2023-10-08T09:22:17;16.48;;;7.93;;
28934;SDS011;16044;52.726;-2.108;2023-10-08T09:24:48;14.70;;;7.80;;
28934;SDS011;16044;52.726;-2.108;2023-10-08T09:27:21;16.13;;;7.22;;
28934;SDS011;16044;52.726;-2.108;2023-10-08T09:29:57;13.88;;;7.20;;
28934;SDS011;16044;52.726;-2.108;2023-10-08T09:32:34;14.05;;;6.75;;
28934;SDS011;16044;52.726;-2.108;2023-10-08T09:35:09;13.32;;;6.53;;
28934;SDS011;16044;52.726;-2.108;2023-10-08T09:37:42;12.75;;;6.28;;
28934;SDS011;16044;52.726;-2.108;2023-10-08T09:40:14;13.23;;;5.80;;
28934;SDS011;16044;52.726;-2.108;2023-10-08T09:42:50;11.73;;;5.13;;
28934;SDS011;16044;52.726;-2.108;2023-10-08T09:45:22;11.43;;;5.03;;
28934;SDS011;16044;52.726;-2.108;2023-10-08T09:47:53;8.98;;;4.50;;
28934;SDS011;16044;52.726;-2.108;2023-10-08T09:50:26;9.85;;;4.28;;
28934;SDS011;16044;52.726;-2.108;2023-10-08T09:53:00;12.43;;;4.87;;
28934;SDS011;16044;52.726;-2.108;2023-10-08T09:55:44;14.20;;;4.27;;
28934;SDS011;16044;52.726;-2.108;2023-10-08T09:58:25;11.23;;;4.32;;
28934;SDS011;16044;52.726;-2.108;2023-10-08T10:00:57;9.90;;;4.35;;
28934;SDS011;16044;52.726;-2.108;2023-10-08T10:03:28;10.13;;;4.25;;
28934;SDS011;16044;52.726;-2.108;2023-10-08T10:06:01;10.32;;;4.63;;
28934;SDS011;16044;52.726;-2.108;2023-10-08T10:08:36;10.68;;;4.28;;
28934;SDS011;16044;52.726;-2.108;2023-10-08T10:11:06;13.20;;;4.60;;
28934;SDS011;16044;52.726;-2.108;2023-10-08T10:13:43;8.75;;;4.13;;
28934;SDS011;16044;52.726;-2.108;2023-10-08T10:16:17;10.77;;;4.78;;
28934;SDS011;16044;52.726;-2.108;2023-10-08T10:18:50;8.82;;;4.28;;
28934;SDS011;16044;52.726;-2.108;2023-10-08T10:21:24;10.60;;;4.50;;
28934;SDS011;16044;52.726;-2.108;2023-10-08T10:24:04;10.35;;;4.57;;
28934;SDS011;16044;52.726;-2.108;2023-10-08T10:26:51;11.48;;;4.70;;
28934;SDS011;16044;52.726;-2.108;2023-10-08T10:29:43;10.18;;;4.63;;
28934;SDS011;16044;52.726;-2.108;2023-10-08T10:32:15;11.13;;;4.40;;
28934;SDS011;16044;52.726;-2.108;2023-10-08T10:34:46;11.90;;;4.97;;
28934;SDS011;16044;52.726;-2.108;2023-10-08T10:37:18;8.95;;;4.57;;
28934;SDS011;16044;52.726;-2.108;2023-10-08T10:39:50;9.68;;;4.15;;
28934;SDS011;16044;52.726;-2.108;2023-10-08T10:42:26;8.55;;;4.07;;
28934;SDS011;16044;52.726;-2.108;2023-10-08T10:45:00;8.30;;;4.25;;
28934;SDS011;16044;52.726;-2.108;2023-10-08T10:47:36;10.02;;;4.10;;
28934;SDS011;16044;52.726;-2.108;2023-10-08T10:50:13;12.05;;;4.55;;
28934;SDS011;16044;52.726;-2.108;2023-10-08T10:52:53;9.23;;;4.63;;
28934;SDS011;16044;52.726;-2.108;2023-10-08T10:55:24;8.55;;;4.15;;
28934;SDS011;16044;52.726;-2.108;2023-10-08T10:57:58;8.68;;;4.35;;
28934;SDS011;16044;52.726;-2.108;2023-10-08T11:00:45;10.65;;;3.97;;
28934;SDS011;16044;52.726;-2.108;2023-10-08T11:03:23;8.13;;;4.30;;
28934;SDS011;16044;52.726;-2.108;2023-10-08T11:05:56;9.00;;;4.30;;
28934;SDS011;16044;52.726;-2.108;2023-10-08T11:08:42;7.85;;;3.60;;
28934;SDS011;16044;52.726;-2.108;2023-10-08T11:11:13;9.10;;;4.13;;
28934;SDS011;16044;52.726;-2.108;2023-10-08T11:13:46;9.68;;;4.25;;
28934;SDS011;16044;52.726;-2.108;2023-10-08T11:16:25;8.82;;;4.30;;
28934;SDS011;16044;52.726;-2.108;2023-10-08T11:18:58;10.07;;;4.05;;
28934;SDS011;16044;52.726;-2.108;2023-10-08T11:21:42;8.95;;;4.03;;
28934;SDS011;16044;52.726;-2.108;2023-10-08T11:24:27;8.25;;;3.88;;
28934;SDS011;16044;52.726;-2.108;2023-10-08T11:27:00;7.75;;;3.78;;
28934;SDS011;16044;52.726;-2.108;2023-10-08T11:29:43;7.50;;;3.70;;
28934;SDS011;16044;52.726;-2.108;2023-10-08T11:32:26;7.13;;;3.80;;
28934;SDS011;16044;52.726;-2.108;2023-10-08T11:34:59;9.40;;;3.55;;
28934;SDS011;16044;52.726;-2.108;2023-10-08T11:37:44;7.63;;;3.47;;
28934;SDS011;16044;52.726;-2.108;2023-10-08T11:40:21;6.78;;;3.40;;
28934;SDS011;16044;52.726;-2.108;2023-10-08T11:42:56;7.53;;;3.42;;
28934;SDS011;16044;52.726;-2.108;2023-10-08T11:45:30;10.25;;;3.67;;
28934;SDS011;16044;52.726;-2.108;2023-10-08T11:48:08;7.38;;;3.50;;
28934;SDS011;16044;52.726;-2.108;2023-10-08T11:50:44;9.27;;;3.28;;
28934;SDS011;16044;52.726;-2.108;2023-10-08T11:53:17;13.57;;;3.60;;
28934;SDS011;16044;52.726;-2.108;2023-10-08T11:55:49;7.63;;;3.40;;
28934;SDS011;16044;52.726;-2.108;2023-10-08T11:58:23;8.27;;;3.40;;
28934;SDS011;16044;52.726;-2.108;2023-10-08T12:01:04;7.63;;;3.63;;
28934;SDS011;16044;52.726;-2.108;2023-10-08T12:03:40;8.73;;;3.33;;
28934;SDS011;16044;52.726;-2.108;2023-10-08T12:06:12;10.05;;;3.70;;
28934;SDS011;16044;52.726;-2.108;2023-10-08T12:08:46;10.70;;;3.88;;
28934;SDS011;16044;52.726;-2.108;2023-10-08T12:11:20;10.45;;;3.72;;
28934;SDS011;16044;52.726;-2.108;2023-10-08T12:13:58;7.28;;;3.55;;
28934;SDS011;16044;52.726;-2.108;2023-10-08T12:16:29;7.82;;;3.83;;
28934;SDS011;16044;52.726;-2.108;2023-10-08T12:19:05;5.93;;;3.10;;
28934;SDS011;16044;52.726;-2.108;2023-10-08T12:21:42;7.68;;;3.40;;
28934;SDS011;16044;52.726;-2.108;2023-10-08T12:24:14;7.82;;;3.30;;
28934;SDS011;16044;52.726;-2.108;2023-10-08T12:26:46;8.05;;;3.40;;
28934;SDS011;16044;52.726;-2.108;2023-10-08T12:29:16;9.63;;;3.53;;
28934;SDS011;16044;52.726;-2.108;2023-10-08T12:31:48;7.97;;;3.35;;
28934;SDS011;16044;52.726;-2.108;2023-10-08T12:34:22;7.30;;;3.20;;
28934;SDS011;16044;52.726;-2.108;2023-10-08T12:36:56;12.50;;;4.03;;
28934;SDS011;16044;52.726;-2.108;2023-10-08T12:39:27;7.10;;;3.35;;
28934;SDS011;16044;52.726;-2.108;2023-10-08T12:41:58;12.98;;;4.22;;
28934;SDS011;16044;52.726;-2.108;2023-10-08T12:44:31;11.65;;;3.63;;
28934;SDS011;16044;52.726;-2.108;2023-10-08T12:47:03;8.85;;;3.72;;
28934;SDS011;16044;52.726;-2.108;2023-10-08T12:49:36;8.15;;;3.75;;
28934;SDS011;16044;52.726;-2.108;2023-10-08T12:52:07;10.75;;;3.33;;
28934;SDS011;16044;52.726;-2.108;2023-10-08T12:54:39;8.15;;;3.47;;
28934;SDS011;16044;52.726;-2.108;2023-10-08T12:57:12;6.90;;;3.25;;
28934;SDS011;16044;52.726;-2.108;2023-10-08T12:59:45;7.43;;;3.70;;
28934;SDS011;16044;52.726;-2.108;2023-10-08T13:02:18;8.18;;;3.17;;
28934;SDS011;16044;52.726;-2.108;2023-10-08T13:04:57;8.32;;;3.35;;
28934;SDS011;16044;52.726;-2.108;2023-10-08T13:07:28;8.07;;;3.30;;
28934;SDS011;16044;52.726;-2.108;2023-10-08T13:10:05;7.00;;;2.90;;
28934;SDS011;16044;52.726;-2.108;2023-10-08T13:12:41;7.05;;;2.90;;
28934;SDS011;16044;52.726;-2.108;2023-10-08T13:15:12;7.72;;;3.30;;
28934;SDS011;16044;52.726;-2.108;2023-10-08T13:17:43;7.13;;;3.42;;
28934;SDS011;16044;52.726;-2.108;2023-10-08T13:20:17;9.65;;;3.30;;
28934;SDS011;16044;52.726;-2.108;2023-10-08T13:22:48;6.20;;;3.10;;
28934;SDS011;16044;52.726;-2.108;2023-10-08T13:25:18;6.72;;;3.25;;
28934;SDS011;16044;52.726;-2.108;2023-10-08T13:27:49;8.30;;;3.60;;
28934;SDS011;16044;52.726;-2.108;2023-10-08T13:30:21;6.47;;;3.22;;
28934;SDS011;16044;52.726;-2.108;2023-10-08T13:32:53;7.10;;;3.35;;
28934;SDS011;16044;52.726;-2.108;2023-10-08T13:35:26;7.38;;;3.13;;
28934;SDS011;16044;52.726;-2.108;2023-10-08T13:37:56;9.15;;;3.30;;
28934;SDS011;16044;52.726;-2.108;2023-10-08T13:40:32;8.23;;;3.22;;
28934;SDS011;16044;52.726;-2.108;2023-10-08T13:43:10;8.52;;;3.58;;
28934;SDS011;16044;52.726;-2.108;2023-10-08T13:45:44;9.55;;;3.70;;
28934;SDS011;16044;52.726;-2.108;2023-10-08T13:48:14;9.50;;;3.70;;
28934;SDS011;16044;52.726;-2.108;2023-10-08T13:50:47;8.52;;;3.70;;
28934;SDS011;16044;52.726;-2.108;2023-10-08T13:53:18;6.57;;;3.53;;
28934;SDS011;16044;52.726;-2.108;2023-10-08T13:55:49;7.88;;;3.30;;
28934;SDS011;16044;52.726;-2.108;2023-10-08T13:58:19;7.65;;;3.22;;
28934;SDS011;16044;52.726;-2.108;2023-10-08T14:00:51;9.80;;;3.47;;
28934;SDS011;16044;52.726;-2.108;2023-10-08T14:03:21;7.82;;;3.83;;
28934;SDS011;16044;52.726;-2.108;2023-10-08T14:05:54;9.07;;;3.65;;
28934;SDS011;16044;52.726;-2.108;2023-10-08T14:08:28;8.80;;;3.83;;
28934;SDS011;16044;52.726;-2.108;2023-10-08T14:10:59;8.00;;;3.95;;
28934;SDS011;16044;52.726;-2.108;2023-10-08T14:13:30;7.25;;;4.18;;
28934;SDS011;16044;52.726;-2.108;2023-10-08T14:16:02;7.82;;;3.38;;
28934;SDS011;16044;52.726;-2.108;2023-10-08T14:18:35;5.85;;;3.35;;
28934;SDS011;16044;52.726;-2.108;2023-10-08T14:21:10;7.35;;;3.78;;
28934;SDS011;16044;52.726;-2.108;2023-10-08T14:23:41;6.63;;;3.53;;
28934;SDS011;16044;52.726;-2.108;2023-10-08T14:28:48;6.32;;;3.47;;
28934;SDS011;16044;52.726;-2.108;2023-10-08T14:31:25;6.75;;;3.28;;
28934;SDS011;16044;52.726;-2.108;2023-10-08T14:33:59;7.07;;;3.45;;
28934;SDS011;16044;52.726;-2.108;2023-10-08T14:36:49;7.60;;;3.60;;
28934;SDS011;16044;52.726;-2.108;2023-10-08T14:39:32;6.32;;;3.08;;
28934;SDS011;16044;52.726;-2.108;2023-10-08T14:42:15;10.52;;;4.05;;
28934;SDS011;16044;52.726;-2.108;2023-10-08T14:44:58;8.55;;;3.40;;
28934;SDS011;16044;52.726;-2.108;2023-10-08T14:47:29;9.70;;;3.28;;
28934;SDS011;16044;52.726;-2.108;2023-10-08T14:49:59;10.50;;;3.50;;
28934;SDS011;16044;52.726;-2.108;2023-10-08T14:52:34;8.15;;;3.25;;
28934;SDS011;16044;52.726;-2.108;2023-10-08T14:55:04;7.45;;;3.40;;
28934;SDS011;16044;52.726;-2.108;2023-10-08T14:57:36;5.00;;;3.13;;
28934;SDS011;16044;52.726;-2.108;2023-10-08T15:00:07;6.47;;;3.10;;
28934;SDS011;16044;52.726;-2.108;2023-10-08T15:02:39;5.82;;;3.13;;
28934;SDS011;16044;52.726;-2.108;2023-10-08T15:05:10;8.20;;;3.25;;
28934;SDS011;16044;52.726;-2.108;2023-10-08T15:07:43;7.30;;;3.00;;
28934;SDS011;16044;52.726;-2.108;2023-10-08T15:10:13;7.57;;;3.22;;
28934;SDS011;16044;52.726;-2.108;2023-10-08T15:12:44;7.55;;;3.47;;
28934;SDS011;16044;52.726;-2.108;2023-10-08T15:15:18;9.10;;;3.45;;
28934;SDS011;16044;52.726;-2.108;2023-10-08T15:17:52;6.85;;;3.15;;
28934;SDS011;16044;52.726;-2.108;2023-10-08T15:20:23;6.78;;;3.25;;